Hardin, Arkansas
Current Conditions -  °F | °C
As of 9:53 AM on Thursday 27 Nov 2014 (Local Time) from KPBF Reporting Station
Light Rain Light Rain  
Wind Chill: 35°   Ceiling: Unl
Heat Index: 41°   Visibility: 10mi
Dew Point: 27°   Wind: 9mph
Humidity: 57%   Direction: 340°NNW
Pressure: 30.57"   Gusts: 18mph
Location:  34.193°N, 91.9403°W
Report Text: KPBF 271553Z AUTO 34008G16KT 10SM -RA SCT033 05/M03 A3057 RMK AO2 SLP352 P0000 T00501028
Loading
Personal Weather Stations






























Interactive Weather Map New forecast layout! Learn more

10-Day Weather Forecast

Advertisements
Track Severe Weather on mobile